Time;durP1;ratioP1;P1;durP2;ratioP2;P2;SDS_P1;SDS_P2;PMS_P1;PMS_P2;Temp;Humidity;BMP_temperature;BMP_pressure;BME280_temperature;BME280_humidity;BME280_pressure;Samples;Min_cycle;Max_cycle;Signal;HPM_P1;HPM_P2
2022/11/17 00:00:32;;;;;;;0.80;0.70;;;8.00;99.90;;;;;;5059467;28;20795;-73
2022/11/17 00:02:59;;;;;;;0.50;0.50;;;8.00;99.90;;;;;;5073527;28;20429;-73
2022/11/17 00:05:25;;;;;;;0.73;0.57;;;8.00;99.90;;;;;;5062483;28;20437;-73
2022/11/17 00:07:52;;;;;;;0.40;0.40;;;8.00;99.90;;;;;;5057725;28;20438;-74
2022/11/17 00:10:19;;;;;;;0.73;0.73;;;7.90;99.90;;;;;;5061714;28;20435;-73
2022/11/17 00:15:31;;;;;;;0.30;0.30;;;7.90;99.90;;;;;;5068885;28;20431;-73
2022/11/17 00:23:45;;;;;;;0.40;0.28;;;7.90;99.90;;;;;;5061832;28;22575;-73
2022/11/17 00:26:15;;;;;;;0.75;0.70;;;7.90;99.90;;;;;;5068317;28;20425;-72
2022/11/17 00:28:42;;;;;;;4.95;1.80;;;7.80;99.90;;;;;;5056134;28;20436;-72
2022/11/17 00:34:04;;;;;;;1.80;1.48;;;7.80;99.90;;;;;;5064773;28;20858;-72
2022/11/17 00:36:46;;;;;;;3.15;2.05;;;7.80;99.90;;;;;;5058434;28;20432;-72
2022/11/17 00:39:15;;;;;;;1.67;1.02;;;7.80;99.90;;;;;;5065538;28;20423;-72
2022/11/17 00:41:42;;;;;;;1.50;0.90;;;7.80;99.90;;;;;;5067843;28;20881;-72
2022/11/17 00:44:10;;;;;;;0.93;0.88;;;7.80;99.90;;;;;;5063853;28;20441;-72
2022/11/17 00:46:37;;;;;;;4.10;1.80;;;7.90;99.90;;;;;;5064158;28;20804;-73
2022/11/17 00:49:05;;;;;;;3.25;1.83;;;7.80;99.90;;;;;;5061183;28;21028;-73
2022/11/17 00:51:32;;;;;;;5.47;1.98;;;7.80;99.90;;;;;;5065043;28;20856;-73
2022/11/17 00:53:59;;;;;;;5.60;3.15;;;7.80;99.90;;;;;;5069107;28;20453;-73
2022/11/17 00:56:26;;;;;;;5.13;1.77;;;7.80;99.90;;;;;;5070143;28;20757;-73
2022/11/17 00:58:53;;;;;;;2.20;1.17;;;7.80;99.90;;;;;;5073168;28;20426;-73
2022/11/17 01:01:20;;;;;;;0.85;0.85;;;7.80;99.90;;;;;;5064800;28;20465;-72
2022/11/17 01:03:48;;;;;;;2.20;0.90;;;7.80;99.90;;;;;;5076828;28;20462;-72
2022/11/17 01:06:19;;;;;;;2.35;1.05;;;7.80;99.90;;;;;;5080682;28;20943;-72
2022/11/17 01:08:46;;;;;;;1.42;1.00;;;7.80;99.90;;;;;;5063476;28;20935;-72
2022/11/17 01:11:15;;;;;;;0.50;0.50;;;7.80;99.90;;;;;;5068711;28;20419;-72
2022/11/17 01:13:43;;;;;;;0.60;0.45;;;7.80;99.90;;;;;;5051596;28;20433;-72
2022/11/17 01:16:16;;;;;;;0.50;0.40;;;7.80;99.90;;;;;;5065088;28;20925;-72
2022/11/17 01:18:44;;;;;;;0.40;0.40;;;7.80;99.90;;;;;;5067613;28;20532;-72
2022/11/17 01:21:12;;;;;;;0.10;0.10;;;7.80;99.90;;;;;;5061799;28;20444;-72
2022/11/17 01:23:41;;;;;;;0.50;0.45;;;7.80;99.90;;;;;;5057091;28;20839;-72
2022/11/17 01:26:14;;;;;;;0.28;0.28;;;7.80;99.90;;;;;;5060696;28;20437;-71
2022/11/17 01:28:42;;;;;;;0.40;0.40;;;7.70;99.90;;;;;;5068245;28;20446;-71
2022/11/17 01:31:17;;;;;;;0.77;0.45;;;7.70;99.90;;;;;;5056962;28;20429;-71
2022/11/17 01:33:45;;;;;;;0.30;0.20;;;7.70;99.90;;;;;;5068267;28;20500;-71
2022/11/17 01:36:24;;;;;;;0.25;0.25;;;7.70;99.90;;;;;;5074974;28;20434;-71
2022/11/17 01:38:51;;;;;;;0.60;0.43;;;7.70;99.90;;;;;;5064642;28;20438;-71
2022/11/17 01:41:23;;;;;;;3.00;0.30;;;7.70;99.90;;;;;;5064926;28;20500;-72
2022/11/17 01:43:51;;;;;;;2.20;0.80;;;7.70;99.90;;;;;;5059191;28;20437;-72
2022/11/17 01:46:31;;;;;;;0.38;0.30;;;7.70;99.90;;;;;;5076795;28;20740;-71
2022/11/17 01:49:06;;;;;;;0.20;0.20;;;7.70;99.90;;;;;;5067901;28;20440;-72
2022/11/17 01:51:37;;;;;;;0.40;0.40;;;7.70;99.90;;;;;;5060357;28;20425;-72
2022/11/17 01:54:05;;;;;;;0.20;0.20;;;7.70;99.90;;;;;;5063118;28;20431;-72
2022/11/17 01:56:38;;;;;;;0.25;0.25;;;7.80;99.90;;;;;;5061256;28;20427;-71
2022/11/17 01:59:13;;;;;;;0.38;0.38;;;7.80;99.90;;;;;;5061850;28;20434;-72
2022/11/17 02:01:54;;;;;;;0.30;0.30;;;7.90;99.90;;;;;;5069827;28;21179;-71
2022/11/17 02:04:29;;;;;;;0.17;0.17;;;7.90;99.90;;;;;;5064867;28;20431;-72
2022/11/17 02:07:08;;;;;;;0.10;0.10;;;7.90;99.90;;;;;;5069004;28;20434;-72
2022/11/17 02:09:39;;;;;;;0.37;0.33;;;7.90;99.90;;;;;;5063710;28;20433;-73
2022/11/17 02:12:10;;;;;;;0.20;0.20;;;7.90;99.90;;;;;;5070793;28;20515;-73
2022/11/17 02:14:38;;;;;;;0.20;0.20;;;8.00;99.90;;;;;;5067780;28;20430;-74
2022/11/17 02:17:06;;;;;;;0.20;0.20;;;7.90;99.90;;;;;;5069058;28;20462;-73
2022/11/17 02:19:42;;;;;;;1.95;0.43;;;7.90;99.90;;;;;;5068164;28;20437;-73
2022/11/17 02:22:34;;;;;;;0.20;0.20;;;7.90;99.90;;;;;;5068266;28;20442;-73
2022/11/17 02:25:06;;;;;;;0.40;0.40;;;7.90;99.90;;;;;;5067386;28;20435;-73
2022/11/17 02:27:59;;;;;;;8.50;0.40;;;8.00;99.90;;;;;;5071547;28;20427;-72
2022/11/17 02:30:36;;;;;;;0.20;0.20;;;8.00;99.90;;;;;;5070780;28;20434;-73
2022/11/17 02:33:12;;;;;;;0.10;0.10;;;8.00;99.90;;;;;;5071015;28;20438;-73
2022/11/17 02:35:38;;;;;;;0.13;0.13;;;7.90;99.90;;;;;;5068437;28;20438;-73
2022/11/17 02:38:26;;;;;;;0.22;0.22;;;7.90;99.90;;;;;;5083645;28;20427;-73
2022/11/17 02:41:15;;;;;;;0.10;0.10;;;8.00;99.90;;;;;;5083536;28;20428;-73
2022/11/17 02:44:05;;;;;;;0.13;0.13;;;8.00;99.90;;;;;;5070367;28;20423;-72
2022/11/17 02:46:44;;;;;;;0.35;0.35;;;8.10;99.90;;;;;;5075118;28;20900;-73
2022/11/17 02:49:23;;;;;;;0.60;0.30;;;8.10;99.90;;;;;;5067874;28;20432;-72
2022/11/17 02:51:53;;;;;;;0.20;0.20;;;8.10;99.90;;;;;;5061306;28;20425;-72
2022/11/17 02:54:22;;;;;;;0.17;0.17;;;8.10;99.90;;;;;;5067932;28;20431;-73
2022/11/17 02:56:49;;;;;;;0.17;0.17;;;8.00;99.90;;;;;;5067386;28;20434;-73
2022/11/17 02:59:20;;;;;;;2.50;0.25;;;8.00;99.90;;;;;;5070706;28;20514;-73
2022/11/17 03:02:11;;;;;;;0.10;0.10;;;8.00;99.90;;;;;;5068677;28;20450;-73
2022/11/17 03:05:00;;;;;;;0.13;0.13;;;8.00;99.90;;;;;;5059506;28;20980;-73
2022/11/17 03:07:47;;;;;;;0.00;0.00;;;8.00;99.90;;;;;;5065521;28;20431;-72
2022/11/17 03:10:21;;;;;;;0.10;0.10;;;8.10;99.90;;;;;;5074660;28;20920;-72
2022/11/17 03:13:09;;;;;;;0.10;0.10;;;8.10;99.90;;;;;;5062456;28;20424;-74
2022/11/17 03:15:35;;;;;;;0.10;0.10;;;8.10;99.90;;;;;;5072043;28;20436;-73
2022/11/17 03:18:34;;;;;;;0.20;0.20;;;8.20;99.90;;;;;;5069233;28;20415;-72
2022/11/17 03:21:06;;;;;;;0.08;0.08;;;8.20;99.90;;;;;;5062026;28;20425;-73
2022/11/17 03:24:15;;;;;;;0.10;0.10;;;8.20;99.90;;;;;;5067390;28;20450;-73
2022/11/17 03:26:50;;;;;;;0.13;0.13;;;8.30;99.90;;;;;;5072214;28;20441;-73
2022/11/17 03:29:19;;;;;;;0.17;0.17;;;8.30;99.90;;;;;;5067615;28;20429;-73
2022/11/17 03:31:49;;;;;;;0.10;0.10;;;8.30;99.90;;;;;;5064247;28;20433;-73
2022/11/17 03:34:20;;;;;;;0.38;0.38;;;8.40;99.90;;;;;;5060284;28;21132;-73
2022/11/17 03:36:51;;;;;;;0.10;0.10;;;8.40;99.90;;;;;;5064567;28;20424;-73
2022/11/17 03:39:36;;;;;;;0.30;0.30;;;8.40;99.90;;;;;;5071294;28;20431;-72
2022/11/17 03:42:15;;;;;;;2.30;0.57;;;8.40;99.90;;;;;;5069357;28;20439;-73
2022/11/17 03:44:48;;;;;;;0.00;0.00;;;8.40;99.90;;;;;;5062530;28;20447;-73
2022/11/17 03:47:17;;;;;;;0.00;0.00;;;8.30;98.70;;;;;;5063391;28;21031;-72
2022/11/17 03:50:04;;;;;;;1.00;0.20;;;8.30;98.10;;;;;;5066132;28;20449;-72
2022/11/17 03:52:33;;;;;;;0.20;0.20;;;8.40;99.90;;;;;;5065273;28;20425;-73
2022/11/17 03:55:01;;;;;;;0.25;0.15;;;8.40;99.90;;;;;;5065952;28;20424;-73
2022/11/17 03:57:57;;;;;;;0.10;0.10;;;8.40;92.80;;;;;;5069238;28;20480;-73
2022/11/17 04:00:24;;;;;;;0.30;0.30;;;8.40;63.70;;;;;;5065913;28;20492;-73
2022/11/17 04:02:55;;;;;;;0.10;0.10;;;8.50;5.50;;;;;;5076484;28;20436;-73
2022/11/17 04:05:22;;;;;;;0.10;0.10;;;8.40;1.00;;;;;;5072654;28;20432;-73
2022/11/17 04:07:49;;;;;;;0.57;0.57;;;8.50;1.00;;;;;;5067010;28;20427;-72
2022/11/17 04:10:21;;;;;;;0.13;0.13;;;8.40;1.00;;;;;;5075269;28;20438;-73
2022/11/17 04:18:20;;;;;;;0.10;0.10;;;8.70;99.90;;;;;;5060497;28;20933;-73
2022/11/17 04:20:55;;;;;;;0.10;0.10;;;8.80;99.90;;;;;;5066189;28;20435;-73
2022/11/17 04:23:23;;;;;;;0.10;0.10;;;8.90;1.00;;;;;;5068228;28;20435;-73
2022/11/17 04:28:44;;;;;;;0.20;0.20;;;9.00;99.90;;;;;;5078763;28;20792;-73
2022/11/17 04:31:28;;;;;;;0.00;0.00;;;9.10;99.90;;;;;;5065897;28;20510;-73
2022/11/17 04:34:04;;;;;;;0.30;0.30;;;9.20;99.90;;;;;;5070654;28;20993;-73
2022/11/17 04:36:34;;;;;;;0.20;0.20;;;9.40;99.90;;;;;;5064437;28;20435;-73
2022/11/17 04:39:02;;;;;;;0.17;0.17;;;9.40;99.90;;;;;;5073372;28;20422;-72
2022/11/17 04:44:16;;;;;;;0.10;0.10;;;9.40;99.90;;;;;;5082765;28;20427;-72
2022/11/17 04:46:44;;;;;;;0.30;0.30;;;9.50;99.90;;;;;;5058384;28;20433;-72
2022/11/17 04:49:12;;;;;;;2.20;0.30;;;9.40;99.90;;;;;;5064825;28;20423;-71
2022/11/17 04:51:39;;;;;;;0.30;0.30;;;9.40;99.90;;;;;;5073852;28;20420;-73
2022/11/17 04:54:08;;;;;;;0.20;0.20;;;9.30;99.90;;;;;;5061211;28;20433;-73
2022/11/17 04:56:36;;;;;;;0.10;0.10;;;9.30;99.90;;;;;;5085645;28;20434;-73
2022/11/17 04:59:03;;;;;;;0.10;0.10;;;9.30;99.90;;;;;;5071879;28;20425;-73
2022/11/17 05:01:30;;;;;;;0.30;0.30;;;9.40;99.90;;;;;;5068815;28;20772;-72
2022/11/17 05:03:59;;;;;;;0.10;0.10;;;9.40;99.90;;;;;;5064815;28;20430;-71
2022/11/17 05:06:32;;;;;;;0.15;0.15;;;9.40;99.90;;;;;;5056588;28;20496;-71
2022/11/17 05:09:05;;;;;;;0.10;0.10;;;9.40;99.90;;;;;;5063834;28;20442;-71
2022/11/17 05:14:19;;;;;;;0.20;0.20;;;9.30;99.90;;;;;;5065263;28;21070;-73
2022/11/17 05:17:05;;;;;;;0.20;0.20;;;9.30;99.90;;;;;;5075141;28;20482;-72
2022/11/17 05:19:45;;;;;;;0.20;0.20;;;9.20;99.90;;;;;;5075077;28;20519;-72
2022/11/17 05:25:03;;;;;;;0.08;0.08;;;9.20;99.90;;;;;;5062986;28;20425;-71
2022/11/17 05:27:30;;;;;;;0.08;0.08;;;9.10;99.90;;;;;;5070050;28;20438;-70
2022/11/17 05:29:57;;;;;;;0.10;0.10;;;9.10;99.90;;;;;;5081785;28;20428;-71
2022/11/17 05:32:23;;;;;;;0.20;0.20;;;9.00;99.90;;;;;;5071018;28;20454;-71
2022/11/17 05:34:50;;;;;;;0.00;0.00;;;9.00;99.90;;;;;;5065636;28;20449;-71
2022/11/17 05:37:17;;;;;;;0.10;0.10;;;9.10;99.90;;;;;;5078224;28;20426;-71
2022/11/17 05:39:44;;;;;;;0.10;0.10;;;9.10;99.90;;;;;;5076081;28;20910;-71
2022/11/17 05:42:10;;;;;;;0.00;0.00;;;9.00;99.90;;;;;;5068964;28;20461;-71
2022/11/17 05:44:38;;;;;;;0.00;0.00;;;9.00;99.90;;;;;;5066449;28;20462;-71
2022/11/17 05:47:05;;;;;;;0.00;0.00;;;9.10;99.90;;;;;;5066601;28;20862;-71
2022/11/17 05:49:32;;;;;;;0.70;0.30;;;9.10;99.90;;;;;;5075776;28;21093;-71
2022/11/17 05:51:59;;;;;;;0.10;0.10;;;9.00;99.90;;;;;;5073953;28;20809;-71
2022/11/17 05:54:25;;;;;;;0.17;0.10;;;9.00;99.90;;;;;;5072703;28;20452;-71
2022/11/17 05:57:04;;;;;;;0.00;0.00;;;9.00;99.90;;;;;;5081888;28;20441;-71
2022/11/17 05:59:36;;;;;;;0.00;0.00;;;9.00;99.90;;;;;;5074406;28;20501;-72
2022/11/17 06:02:12;;;;;;;0.00;0.00;;;9.00;99.90;;;;;;5060973;28;20455;-71
2022/11/17 06:04:39;;;;;;;0.00;0.00;;;9.00;99.90;;;;;;5061460;28;20444;-71
2022/11/17 06:07:06;;;;;;;1.10;0.30;;;9.00;99.90;;;;;;5070869;28;20512;-72
2022/11/17 06:09:35;;;;;;;0.00;0.00;;;9.00;99.90;;;;;;5064602;28;20423;-71
2022/11/17 06:12:02;;;;;;;0.50;0.15;;;9.10;99.90;;;;;;5059600;28;20444;-71
2022/11/17 06:14:34;;;;;;;0.00;0.00;;;9.10;99.90;;;;;;5060475;28;20454;-71
2022/11/17 06:17:05;;;;;;;0.00;0.00;;;9.20;99.90;;;;;;5062286;28;20430;-71
2022/11/17 06:19:44;;;;;;;0.20;0.20;;;9.20;99.90;;;;;;5072095;28;20905;-72
2022/11/17 06:22:11;;;;;;;0.00;0.00;;;9.20;99.90;;;;;;5066725;28;20914;-71
2022/11/17 06:24:42;;;;;;;0.30;0.10;;;9.10;99.90;;;;;;5071014;28;20427;-70
2022/11/17 06:27:10;;;;;;;0.10;0.10;;;9.10;99.90;;;;;;5068206;28;20427;-70
2022/11/17 06:29:37;;;;;;;0.60;0.20;;;9.10;99.90;;;;;;5071811;28;20431;-69
2022/11/17 06:32:12;;;;;;;0.10;0.10;;;9.20;99.90;;;;;;5057779;28;20454;-69
2022/11/17 06:34:40;;;;;;;3.30;0.22;;;9.30;99.90;;;;;;5065618;28;20430;-69
2022/11/17 06:37:07;;;;;;;0.30;0.20;;;9.40;99.90;;;;;;5062673;28;20814;-69
2022/11/17 06:39:33;;;;;;;0.20;0.10;;;9.40;99.90;;;;;;5065020;28;20431;-69
2022/11/17 06:42:00;;;;;;;0.20;0.20;;;9.40;99.90;;;;;;5065110;28;20435;-70
2022/11/17 06:44:27;;;;;;;0.08;0.08;;;9.40;99.90;;;;;;5073753;28;20442;-70
2022/11/17 06:46:53;;;;;;;1.10;0.40;;;9.40;99.90;;;;;;5057263;28;20437;-69
2022/11/17 06:49:20;;;;;;;0.50;0.20;;;9.40;99.90;;;;;;5071065;28;20515;-69
2022/11/17 06:51:47;;;;;;;0.10;0.10;;;9.40;99.90;;;;;;5066546;28;20483;-70
2022/11/17 06:54:14;;;;;;;0.20;0.20;;;9.40;99.90;;;;;;5068528;28;20427;-70
2022/11/17 06:56:41;;;;;;;0.03;0.03;;;9.40;99.90;;;;;;5057152;28;20779;-69
2022/11/17 06:59:09;;;;;;;0.10;0.10;;;9.40;99.90;;;;;;5052550;28;20484;-69
2022/11/17 07:01:36;;;;;;;2.30;0.20;;;9.40;99.90;;;;;;5060264;28;20433;-69
2022/11/17 07:04:03;;;;;;;0.10;0.10;;;9.40;99.90;;;;;;5063741;28;20436;-69
2022/11/17 07:06:31;;;;;;;0.00;0.00;;;9.40;99.90;;;;;;5064819;28;20427;-69
2022/11/17 07:08:57;;;;;;;0.10;0.10;;;9.40;99.90;;;;;;5068358;28;20463;-68
2022/11/17 07:11:24;;;;;;;0.10;0.10;;;9.40;99.90;;;;;;5070663;28;20437;-69
2022/11/17 07:13:51;;;;;;;0.40;0.20;;;9.40;99.90;;;;;;5074494;28;21297;-69
2022/11/17 07:16:19;;;;;;;0.10;0.10;;;9.40;99.90;;;;;;5067091;28;20930;-70
2022/11/17 07:18:49;;;;;;;0.10;0.10;;;9.40;99.90;;;;;;5061304;28;20556;-70
2022/11/17 07:21:16;;;;;;;0.10;0.10;;;9.40;99.90;;;;;;5051493;28;20425;-70
2022/11/17 07:23:44;;;;;;;0.40;0.40;;;9.50;99.90;;;;;;5070147;28;20439;-70
2022/11/17 07:26:13;;;;;;;0.17;0.17;;;9.50;99.90;;;;;;5071279;28;20523;-70
2022/11/17 07:28:39;;;;;;;0.00;0.00;;;9.50;99.90;;;;;;5068333;28;20878;-70
2022/11/17 07:31:08;;;;;;;0.15;0.15;;;9.40;99.90;;;;;;5054667;28;20463;-70
2022/11/17 07:33:35;;;;;;;0.17;0.17;;;9.40;99.90;;;;;;5072721;28;20427;-71
2022/11/17 07:36:08;;;;;;;0.10;0.10;;;9.40;99.90;;;;;;5072058;28;20463;-69
2022/11/17 07:38:36;;;;;;;0.17;0.17;;;9.40;99.90;;;;;;5058015;28;20477;-69
2022/11/17 07:41:05;;;;;;;0.25;0.25;;;9.50;99.90;;;;;;5066646;28;20487;-69
2022/11/17 07:43:33;;;;;;;0.20;0.20;;;9.60;99.90;;;;;;5064697;28;20476;-70
2022/11/17 07:46:05;;;;;;;0.10;0.10;;;9.60;99.90;;;;;;5063578;28;20786;-69
2022/11/17 07:48:32;;;;;;;0.20;0.20;;;9.60;99.90;;;;;;5064208;28;20621;-69
2022/11/17 07:51:02;;;;;;;0.20;0.20;;;9.60;99.90;;;;;;5059267;28;20435;-69
2022/11/17 07:53:31;;;;;;;0.10;0.10;;;9.60;99.90;;;;;;5061601;28;20777;-69
2022/11/17 07:56:08;;;;;;;0.20;0.20;;;9.70;99.90;;;;;;5072365;28;20515;-69
2022/11/17 07:58:35;;;;;;;0.30;0.30;;;9.80;99.90;;;;;;5072109;28;20499;-69
2022/11/17 08:01:16;;;;;;;0.80;0.30;;;10.00;99.90;;;;;;5061380;28;20506;-69
2022/11/17 08:03:43;;;;;;;0.28;0.28;;;10.00;99.90;;;;;;5051573;28;20787;-69
2022/11/17 08:06:10;;;;;;;0.17;0.17;;;10.00;99.90;;;;;;5061753;28;20488;-69
2022/11/17 08:08:37;;;;;;;0.20;0.20;;;10.00;99.90;;;;;;5066565;28;20773;-69
2022/11/17 08:11:07;;;;;;;2.10;0.30;;;10.10;99.90;;;;;;5065086;28;20481;-70
2022/11/17 08:13:35;;;;;;;0.30;0.30;;;10.20;99.90;;;;;;5068587;28;20959;-70
2022/11/17 08:16:02;;;;;;;0.28;0.28;;;10.20;99.90;;;;;;5075183;28;20428;-70
2022/11/17 08:18:29;;;;;;;0.00;0.00;;;10.30;99.90;;;;;;5075934;28;20428;-71
2022/11/17 08:21:07;;;;;;;0.20;0.20;;;10.40;99.90;;;;;;5078030;28;20517;-70
2022/11/17 08:23:34;;;;;;;0.28;0.20;;;10.50;99.90;;;;;;5066087;28;20516;-70
2022/11/17 08:26:02;;;;;;;0.03;0.03;;;10.50;99.90;;;;;;5064335;28;20961;-70
2022/11/17 08:28:29;;;;;;;0.10;0.10;;;10.50;99.90;;;;;;5069881;28;20490;-70
2022/11/17 08:30:58;;;;;;;1.10;0.40;;;10.50;99.90;;;;;;5071581;28;20430;-70
2022/11/17 08:33:25;;;;;;;0.20;0.20;;;10.50;99.90;;;;;;5057186;28;20432;-70
2022/11/17 08:35:56;;;;;;;0.10;0.10;;;10.50;99.90;;;;;;5054048;28;20452;-70
2022/11/17 08:38:27;;;;;;;0.10;0.10;;;10.50;99.90;;;;;;5066945;28;20473;-70
2022/11/17 08:41:00;;;;;;;0.10;0.10;;;10.50;99.90;;;;;;5069086;28;20929;-70
2022/11/17 08:43:27;;;;;;;0.20;0.20;;;10.50;99.90;;;;;;5062724;28;20433;-64
2022/11/17 08:45:54;;;;;;;0.10;0.10;;;10.50;99.90;;;;;;5061624;28;20536;-71
2022/11/17 08:48:22;;;;;;;0.20;0.20;;;10.60;99.90;;;;;;5067527;28;20449;-71
2022/11/17 08:50:49;;;;;;;0.10;0.10;;;10.80;99.90;;;;;;5052277;28;20435;-71
2022/11/17 08:53:18;;;;;;;0.10;0.10;;;11.00;99.90;;;;;;5075692;28;20422;-72
2022/11/17 08:55:46;;;;;;;0.40;0.40;;;11.10;99.90;;;;;;5063618;28;20443;-70
2022/11/17 08:58:13;;;;;;;0.20;0.20;;;11.10;99.90;;;;;;5054714;28;20900;-70
2022/11/17 09:00:40;;;;;;;1.00;0.60;;;11.10;99.90;;;;;;5064837;28;20456;-71
2022/11/17 09:03:09;;;;;;;0.30;0.30;;;11.00;99.90;;;;;;5066189;28;20459;-70
2022/11/17 09:05:46;;;;;;;0.20;0.20;;;10.90;99.90;;;;;;5064861;28;21109;-71
2022/11/17 09:08:13;;;;;;;0.10;0.10;;;10.90;99.90;;;;;;5064205;28;20490;-71
2022/11/17 09:11:05;;;;;;;2.13;0.25;;;10.80;99.90;;;;;;5068464;28;20429;-72
2022/11/17 09:13:32;;;;;;;0.10;0.10;;;10.70;99.90;;;;;;5066069;28;21098;-71
2022/11/17 09:16:01;;;;;;;0.20;0.20;;;10.70;99.90;;;;;;5067276;28;20551;-70
2022/11/17 09:18:28;;;;;;;0.10;0.10;;;10.70;99.90;;;;;;5070990;28;20770;-73
2022/11/17 09:21:04;;;;;;;0.10;0.10;;;10.60;99.90;;;;;;5057440;28;20948;-71
2022/11/17 09:23:31;;;;;;;0.80;0.32;;;10.60;99.90;;;;;;5062381;28;20519;-71
2022/11/17 09:26:02;;;;;;;0.10;0.10;;;10.50;99.90;;;;;;5065337;28;20461;-71
2022/11/17 09:28:29;;;;;;;0.17;0.17;;;10.60;99.90;;;;;;5069541;28;20449;-71
2022/11/17 09:30:57;;;;;;;0.20;0.20;;;10.70;99.90;;;;;;5064532;28;20518;-71
2022/11/17 09:33:27;;;;;;;0.20;0.20;;;10.70;99.90;;;;;;5055890;28;20433;-71
2022/11/17 09:35:56;;;;;;;0.25;0.25;;;10.90;99.90;;;;;;5058675;28;20974;-71
2022/11/17 09:38:23;;;;;;;0.10;0.10;;;11.20;99.90;;;;;;5070134;28;20434;-71
2022/11/17 09:40:50;;;;;;;0.30;0.30;;;11.90;99.90;;;;;;5058349;28;21163;-71
2022/11/17 09:43:29;;;;;;;0.20;0.20;;;12.50;99.90;;;;;;5055224;28;20431;-71
2022/11/17 09:46:11;;;;;;;0.30;0.30;;;12.40;99.90;;;;;;5057752;28;20516;-71
2022/11/17 09:48:54;;;;;;;0.10;0.10;;;12.10;99.90;;;;;;5062655;28;20451;-71
2022/11/17 09:51:24;;;;;;;0.20;0.20;;;11.90;99.90;;;;;;5056303;28;20433;-71
2022/11/17 09:54:18;;;;;;;0.30;0.30;;;11.70;99.90;;;;;;5055880;28;20466;-71
2022/11/17 09:56:46;;;;;;;0.40;0.38;;;11.70;99.90;;;;;;5055841;28;20436;-72
2022/11/17 09:59:18;;;;;;;0.40;0.40;;;11.60;99.90;;;;;;5062631;28;20893;-71
2022/11/17 10:01:45;;;;;;;0.40;0.40;;;11.70;99.90;;;;;;5061429;28;20419;-71
2022/11/17 10:04:15;;;;;;;0.20;0.13;;;11.70;99.90;;;;;;5058918;28;20431;-70
2022/11/17 10:06:46;;;;;;;0.17;0.17;;;11.50;99.90;;;;;;5061436;28;20518;-70
2022/11/17 10:09:40;;;;;;;0.20;0.20;;;11.50;99.90;;;;;;5059034;28;20436;-70
2022/11/17 10:12:18;;;;;;;0.20;0.20;;;11.50;99.90;;;;;;5070430;28;20465;-70
2022/11/17 10:14:48;;;;;;;0.20;0.20;;;11.50;99.90;;;;;;5053116;28;20443;-70
2022/11/17 10:17:15;;;;;;;0.22;0.20;;;11.40;99.90;;;;;;5062689;28;20818;-70
2022/11/17 10:19:44;;;;;;;0.20;0.20;;;11.40;99.90;;;;;;5062802;28;20427;-70
2022/11/17 10:22:33;;;;;;;0.15;0.15;;;11.40;99.90;;;;;;5057749;28;20453;-70
2022/11/17 10:25:00;;;;;;;0.40;0.20;;;11.50;99.90;;;;;;5057398;28;20990;-70
2022/11/17 10:27:32;;;;;;;1.55;0.80;;;11.60;99.90;;;;;;5063019;28;20846;-70
2022/11/17 10:30:08;;;;;;;5.60;0.40;;;11.70;99.90;;;;;;5054797;28;20448;-70
2022/11/17 10:32:51;;;;;;;0.90;0.73;;;12.00;99.90;;;;;;5054193;28;20437;-71
2022/11/17 10:35:22;;;;;;;0.10;0.10;;;12.30;99.90;;;;;;5059834;28;20447;-70
2022/11/17 10:38:05;;;;;;;0.55;0.35;;;12.90;99.90;;;;;;5068987;28;20431;-70
2022/11/17 10:40:49;;;;;;;2.00;0.40;;;13.60;99.90;;;;;;5058177;28;20431;-70
2022/11/17 10:43:16;;;;;;;0.25;0.25;;;13.90;99.90;;;;;;5080665;28;20509;-72
2022/11/17 10:46:13;;;;;;;0.20;0.20;;;13.90;99.90;;;;;;5065870;28;20797;-71
2022/11/17 10:48:59;;;;;;;0.20;0.20;;;13.90;99.90;;;;;;5024739;28;20457;-71
2022/11/17 10:51:31;;;;;;;0.90;0.40;;;13.70;99.90;;;;;;5025469;28;20798;-71
2022/11/17 10:54:16;;;;;;;0.60;0.40;;;13.30;99.90;;;;;;5028993;28;20932;-70
2022/11/17 10:56:46;;;;;;;1.10;0.20;;;12.90;99.90;;;;;;5029740;28;20552;-72
2022/11/17 10:59:29;;;;;;;0.20;0.20;;;12.80;99.90;;;;;;5021861;28;22191;-71
2022/11/17 11:01:56;;;;;;;3.20;0.30;;;12.60;99.90;;;;;;5030328;28;20431;-71
2022/11/17 11:04:31;;;;;;;0.30;0.30;;;12.50;99.90;;;;;;5026375;28;20431;-71
2022/11/17 11:07:19;;;;;;;0.20;0.20;;;12.40;99.90;;;;;;5027025;28;21142;-71
2022/11/17 11:10:13;;;;;;;0.70;0.30;;;12.30;99.90;;;;;;5011231;28;20443;-70
2022/11/17 11:12:59;;;;;;;0.35;0.35;;;12.20;99.90;;;;;;5023536;28;20510;-70
2022/11/17 11:15:34;;;;;;;0.70;0.70;;;12.20;99.90;;;;;;5022982;28;20450;-70
2022/11/17 11:18:15;;;;;;;1.20;0.50;;;12.30;99.90;;;;;;5022360;28;20449;-71
2022/11/17 11:21:04;;;;;;;0.15;0.15;;;12.40;99.90;;;;;;5028043;28;20965;-71
2022/11/17 11:24:07;;;;;;;0.13;0.13;;;12.40;99.90;;;;;;5019503;28;20427;-70
2022/11/17 11:26:54;;;;;;;0.40;0.40;;;12.30;99.90;;;;;;5062226;28;20451;-70
2022/11/17 11:29:46;;;;;;;0.70;0.20;;;12.30;99.90;;;;;;5072169;28;20427;-69
2022/11/17 11:32:23;;;;;;;0.25;0.25;;;12.10;99.90;;;;;;5066175;28;20472;-70
2022/11/17 11:35:30;;;;;;;0.20;0.20;;;12.10;99.90;;;;;;5068565;28;20505;-69
2022/11/17 11:38:22;;;;;;;0.40;0.10;;;12.10;99.90;;;;;;5065252;28;20439;-70
2022/11/17 11:41:11;;;;;;;0.20;0.20;;;12.00;99.90;;;;;;5064720;28;20452;-70
2022/11/17 11:43:44;;;;;;;2.10;0.47;;;11.80;99.90;;;;;;5079303;28;20450;-71
2022/11/17 11:46:22;;;;;;;0.30;0.30;;;11.70;99.90;;;;;;5066392;28;20435;-69
2022/11/17 11:48:52;;;;;;;0.30;0.30;;;11.70;99.90;;;;;;5069359;28;20427;-70
2022/11/17 11:51:35;;;;;;;0.30;0.30;;;11.70;99.90;;;;;;5072288;28;20525;-70
2022/11/17 11:54:17;;;;;;;0.15;0.15;;;11.80;99.90;;;;;;5066587;28;20426;-70
2022/11/17 11:56:46;;;;;;;0.10;0.10;;;11.90;99.90;;;;;;5064011;28;20431;-71
2022/11/17 11:59:37;;;;;;;0.80;0.30;;;12.10;99.90;;;;;;5074175;28;20510;-71
2022/11/17 12:02:11;;;;;;;0.60;0.10;;;12.40;99.90;;;;;;5059502;28;20508;-70
2022/11/17 12:04:50;;;;;;;2.00;0.75;;;12.60;99.90;;;;;;5060772;28;20438;-71
2022/11/17 12:07:46;;;;;;;0.25;0.25;;;12.60;99.90;;;;;;5068854;28;20930;-70
2022/11/17 12:10:36;;;;;;;0.10;0.10;;;12.60;99.90;;;;;;5038093;28;20434;-71
2022/11/17 12:13:04;;;;;;;0.20;0.20;;;12.70;99.90;;;;;;5064126;28;20435;-69
2022/11/17 12:15:34;;;;;;;0.10;0.10;;;12.60;99.90;;;;;;5061013;28;20482;-70
2022/11/17 12:18:30;;;;;;;0.20;0.20;;;12.60;99.90;;;;;;5066888;28;20449;-70
2022/11/17 12:21:04;;;;;;;0.20;0.20;;;12.70;99.90;;;;;;5065214;28;20435;-71
2022/11/17 12:24:07;;;;;;;0.10;0.10;;;12.60;99.90;;;;;;5065184;28;20420;-70
2022/11/17 12:26:35;;;;;;;0.10;0.10;;;12.70;99.90;;;;;;5063025;28;20912;-70
2022/11/17 12:29:20;;;;;;;1.30;0.30;;;13.10;99.90;;;;;;5059462;28;20440;-71
2022/11/17 12:31:48;;;;;;;0.20;0.20;;;13.30;99.90;;;;;;5065140;28;20427;-71
2022/11/17 12:34:27;;;;;;;0.17;0.17;;;13.30;99.90;;;;;;5064393;28;20442;-70
2022/11/17 12:37:18;;;;;;;0.22;0.20;;;13.30;99.90;;;;;;5065368;28;20515;-70
2022/11/17 12:40:01;;;;;;;0.10;0.10;;;13.10;99.90;;;;;;5061185;28;20888;-71
2022/11/17 12:42:33;;;;;;;0.20;0.20;;;13.00;99.90;;;;;;5077939;28;20422;-71
2022/11/17 12:45:10;;;;;;;0.20;0.20;;;12.60;99.90;;;;;;5066046;28;20427;-71
2022/11/17 12:47:45;;;;;;;8.10;0.40;;;12.40;99.90;;;;;;5050352;28;20512;-71
2022/11/17 12:50:52;;;;;;;0.20;0.20;;;12.60;99.90;;;;;;5066489;28;20421;-70
2022/11/17 12:53:30;;;;;;;0.80;0.28;;;13.20;99.90;;;;;;5060806;28;21863;-71
2022/11/17 12:56:21;;;;;;;0.25;0.20;;;13.30;99.90;;;;;;5072401;28;20501;-71
2022/11/17 12:59:02;;;;;;;0.30;0.30;;;13.30;99.90;;;;;;5062037;28;20435;-70
2022/11/17 13:02:04;;;;;;;0.30;0.20;;;12.90;99.90;;;;;;5060554;28;20466;-71
2022/11/17 13:04:36;;;;;;;0.20;0.20;;;12.60;99.90;;;;;;5068096;28;20430;-71
2022/11/17 13:07:16;;;;;;;0.10;0.10;;;12.00;99.90;;;;;;5060114;28;20994;-71
2022/11/17 13:09:43;;;;;;;0.30;0.30;;;11.70;99.90;;;;;;5068695;28;20454;-71
2022/11/17 13:12:10;;;;;;;0.20;0.20;;;11.50;99.90;;;;;;5065157;28;20881;-71
2022/11/17 13:14:52;;;;;;;0.20;0.20;;;11.40;99.90;;;;;;5060577;28;20434;-71
2022/11/17 13:17:24;;;;;;;0.20;0.20;;;11.30;99.90;;;;;;5066910;28;20436;-71
2022/11/17 13:20:21;;;;;;;0.20;0.20;;;11.20;99.90;;;;;;5052414;28;20434;-71
2022/11/17 13:23:05;;;;;;;0.13;0.13;;;11.20;99.90;;;;;;5050912;28;20476;-70
2022/11/17 13:29:18;;;;;;;0.70;0.20;;;11.50;99.90;;;;;;5061161;28;20378;-71
2022/11/17 13:31:45;;;;;;;0.20;0.20;;;11.70;99.90;;;;;;5051408;28;20461;-70
2022/11/17 13:34:16;;;;;;;1.60;0.40;;;12.00;99.90;;;;;;5057052;28;20443;-71
2022/11/17 13:37:13;;;;;;;1.90;0.30;;;12.20;99.90;;;;;;5052418;28;20438;-71
2022/11/17 13:39:54;;;;;;;0.80;0.30;;;12.50;99.90;;;;;;5054972;28;20445;-71
2022/11/17 13:42:24;;;;;;;0.10;0.10;;;12.60;99.90;;;;;;5074037;28;20926;-70
2022/11/17 13:44:53;;;;;;;0.20;0.20;;;12.70;99.90;;;;;;5052177;28;20454;-71
2022/11/17 13:47:48;;;;;;;0.20;0.20;;;12.70;99.90;;;;;;5058222;28;21250;-71
2022/11/17 13:50:21;;;;;;;0.10;0.10;;;12.60;99.90;;;;;;5062949;28;20431;-71
2022/11/17 13:53:20;;;;;;;0.35;0.25;;;12.50;99.90;;;;;;5062970;28;20423;-71
2022/11/17 13:55:47;;;;;;;0.20;0.20;;;12.60;99.90;;;;;;5062896;28;21144;-71
2022/11/17 13:58:31;;;;;;;0.10;0.10;;;12.40;99.90;;;;;;5055500;28;20432;-71